Aviation Digital Data Service (ADDS)

Output produced by METARs form (1515 UTC 20 March 2019)
found at http://www.aviationweather.gov/metar/data/
 
METAR text: VOVZ 201500Z 25008KT 5000 BR FEW018 28/23 Q1011 NOSIG
Conditions at: VOVZ (VIZAGAPATAM , IN) observed 1500 UTC 20 March 2019
Temperature: 28.0°C (82°F)
Dewpoint: 23.0°C (73°F) [RH = 74%]
Pressure (altimeter): 29.85 inches Hg (1011.0 mb)
Winds: from the WSW (250 degrees) at 9 MPH (8 knots; 4.1 m/s)
Visibility: 3 miles ( 5 km)
Ceiling: at least 12,000 feet AGL
Clouds: few clouds at 1800 feet AGL
Weather: BR  (mist)

METAR text: VOVZ 201430Z 25008KT 5000 BR FEW018 28/23 Q1011 NOSIG
Conditions at: VOVZ (VIZAGAPATAM , IN) observed 1430 UTC 20 March 2019
Temperature: 28.0°C (82°F)
Dewpoint: 23.0°C (73°F) [RH = 74%]
Pressure (altimeter): 29.85 inches Hg (1011.0 mb)
Winds: from the WSW (250 degrees) at 9 MPH (8 knots; 4.1 m/s)
Visibility: 3 miles ( 5 km)
Ceiling: at least 12,000 feet AGL
Clouds: few clouds at 1800 feet AGL
Weather: BR  (mist)

METAR text: VOVZ 201400Z 23010KT 5000 HZ FEW018 28/23 Q1010 NOSIG
Conditions at: VOVZ (VIZAGAPATAM , IN) observed 1400 UTC 20 March 2019
Temperature: 28.0°C (82°F)
Dewpoint: 23.0°C (73°F) [RH = 74%]
Pressure (altimeter): 29.82 inches Hg (1010.0 mb)
Winds: from the SW (230 degrees) at 12 MPH (10 knots; 5.1 m/s)
Visibility: 3 miles ( 5 km)
Ceiling: at least 12,000 feet AGL
Clouds: few clouds at 1800 feet AGL
Weather: HZ  (haze)

METAR text: VOVZ 201330Z 23010KT 5000 HZ FEW018 29/24 Q1010 NOSIG
Conditions at: VOVZ (VIZAGAPATAM , IN) observed 1330 UTC 20 March 2019
Temperature: 29.0°C (84°F)
Dewpoint: 24.0°C (75°F) [RH = 74%]
Pressure (altimeter): 29.82 inches Hg (1010.0 mb)
Winds: from the SW (230 degrees) at 12 MPH (10 knots; 5.1 m/s)
Visibility: 3 miles ( 5 km)
Ceiling: at least 12,000 feet AGL
Clouds: few clouds at 1800 feet AGL
Weather: HZ  (haze)

METAR text: VOVZ 201300Z 22008KT 5000 HZ FEW018 29/24 Q1009 NOSIG
Conditions at: VOVZ (VIZAGAPATAM , IN) observed 1300 UTC 20 March 2019
Temperature: 29.0°C (84°F)
Dewpoint: 24.0°C (75°F) [RH = 74%]
Pressure (altimeter): 29.79 inches Hg (1009.0 mb)
Winds: from the SW (220 degrees) at 9 MPH (8 knots; 4.1 m/s)
Visibility: 3 miles ( 5 km)
Ceiling: at least 12,000 feet AGL
Clouds: few clouds at 1800 feet AGL
Weather: HZ  (haze)

METAR text: VOVZ 201230Z 21009KT 5000 HZ FEW018 29/23 Q1009 NOSIG
Conditions at: VOVZ (VIZAGAPATAM , IN) observed 1230 UTC 20 March 2019
Temperature: 29.0°C (84°F)
Dewpoint: 23.0°C (73°F) [RH = 70%]
Pressure (altimeter): 29.79 inches Hg (1009.0 mb)
Winds: from the SSW (210 degrees) at 10 MPH (9 knots; 4.6 m/s)
Visibility: 3 miles ( 5 km)
Ceiling: at least 12,000 feet AGL
Clouds: few clouds at 1800 feet AGL
Weather: HZ  (haze)

METAR text: VOVZ 201200Z 21010KT 6000 FEW018 30/23 Q1008 NOSIG
Conditions at: VOVZ (VIZAGAPATAM , IN) observed 1200 UTC 20 March 2019
Temperature: 30.0°C (86°F)
Dewpoint: 23.0°C (73°F) [RH = 66%]
Pressure (altimeter): 29.76 inches Hg (1008.0 mb)
Winds: from the SSW (210 degrees) at 12 MPH (10 knots; 5.1 m/s)
Visibility: 4 miles ( 6 km)
Ceiling: at least 12,000 feet AGL
Clouds: few clouds at 1800 feet AGL
Weather: no significant weather observed at this time

METAR text: VOVZ 201130Z 20008KT 6000 FEW018 31/23 Q1008 NOSIG
Conditions at: VOVZ (VIZAGAPATAM , IN) observed 1130 UTC 20 March 2019
Temperature: 31.0°C (88°F)
Dewpoint: 23.0°C (73°F) [RH = 63%]
Pressure (altimeter): 29.76 inches Hg (1008.0 mb)
Winds: from the SSW (200 degrees) at 9 MPH (8 knots; 4.1 m/s)
Visibility: 4 miles ( 6 km)
Ceiling: at least 12,000 feet AGL
Clouds: few clouds at 1800 feet AGL
Weather: no significant weather observed at this time

METAR text: VOVZ 201100Z 22008KT 6000 FEW018 31/23 Q1008 NOSIG
Conditions at: VOVZ (VIZAGAPATAM , IN) observed 1100 UTC 20 March 2019
Temperature: 31.0°C (88°F)
Dewpoint: 23.0°C (73°F) [RH = 63%]
Pressure (altimeter): 29.76 inches Hg (1008.0 mb)
Winds: from the SW (220 degrees) at 9 MPH (8 knots; 4.1 m/s)
Visibility: 4 miles ( 6 km)
Ceiling: at least 12,000 feet AGL
Clouds: few clouds at 1800 feet AGL
Weather: no significant weather observed at this time

METAR text: VOVZ 201030Z 19008KT 6000 FEW018 32/23 Q1008 NOSIG
Conditions at: VOVZ (VIZAGAPATAM , IN) observed 1030 UTC 20 March 2019
Temperature: 32.0°C (90°F)
Dewpoint: 23.0°C (73°F) [RH = 59%]
Pressure (altimeter): 29.76 inches Hg (1008.0 mb)
Winds: from the S (190 degrees) at 9 MPH (8 knots; 4.1 m/s)
Visibility: 4 miles ( 6 km)
Ceiling: at least 12,000 feet AGL
Clouds: few clouds at 1800 feet AGL
Weather: no significant weather observed at this time

METAR text: VOVZ 201000Z 19009KT 6000 FEW018 32/23 Q1008 NOSIG
Conditions at: VOVZ (VIZAGAPATAM , IN) observed 1000 UTC 20 March 2019
Temperature: 32.0°C (90°F)
Dewpoint: 23.0°C (73°F) [RH = 59%]
Pressure (altimeter): 29.76 inches Hg (1008.0 mb)
Winds: from the S (190 degrees) at 10 MPH (9 knots; 4.6 m/s)
Visibility: 4 miles ( 6 km)
Ceiling: at least 12,000 feet AGL
Clouds: few clouds at 1800 feet AGL
Weather: no significant weather observed at this time

METAR text: VOVZ 200930Z 19009KT 6000 FEW018 32/23 Q1008 NOSIG
Conditions at: VOVZ (VIZAGAPATAM , IN) observed 0930 UTC 20 March 2019
Temperature: 32.0°C (90°F)
Dewpoint: 23.0°C (73°F) [RH = 59%]
Pressure (altimeter): 29.76 inches Hg (1008.0 mb)
Winds: from the S (190 degrees) at 10 MPH (9 knots; 4.6 m/s)
Visibility: 4 miles ( 6 km)
Ceiling: at least 12,000 feet AGL
Clouds: few clouds at 1800 feet AGL
Weather: no significant weather observed at this time

METAR text: VOVZ 200900Z 20008KT 5000 HZ FU FEW018 32/23 Q1009 NOSIG
Conditions at: VOVZ (VIZAGAPATAM , IN) observed 0900 UTC 20 March 2019
Temperature: 32.0°C (90°F)
Dewpoint: 23.0°C (73°F) [RH = 59%]
Pressure (altimeter): 29.79 inches Hg (1009.0 mb)
Winds: from the SSW (200 degrees) at 9 MPH (8 knots; 4.1 m/s)
Visibility: 3 miles ( 5 km)
Ceiling: at least 12,000 feet AGL
Clouds: few clouds at 1800 feet AGL
Weather: HZ FU  (haze, smoke)

METAR text: VOVZ 200830Z 19008KT 5000 HZ FU FEW018 32/23 Q1009 NOSIG
Conditions at: VOVZ (VIZAGAPATAM , IN) observed 0830 UTC 20 March 2019
Temperature: 32.0°C (90°F)
Dewpoint: 23.0°C (73°F) [RH = 59%]
Pressure (altimeter): 29.79 inches Hg (1009.0 mb)
Winds: from the S (190 degrees) at 9 MPH (8 knots; 4.1 m/s)
Visibility: 3 miles ( 5 km)
Ceiling: at least 12,000 feet AGL
Clouds: few clouds at 1800 feet AGL
Weather: HZ FU  (haze, smoke)

METAR text: VOVZ 200800Z 20009KT 5000 HZ FU FEW018 33/24 Q1009 NOSIG
Conditions at: VOVZ (VIZAGAPATAM , IN) observed 0800 UTC 20 March 2019
Temperature: 33.0°C (91°F)
Dewpoint: 24.0°C (75°F) [RH = 59%]
Pressure (altimeter): 29.79 inches Hg (1009.0 mb)
Winds: from the SSW (200 degrees) at 10 MPH (9 knots; 4.6 m/s)
Visibility: 3 miles ( 5 km)
Ceiling: at least 12,000 feet AGL
Clouds: few clouds at 1800 feet AGL
Weather: HZ FU  (haze, smoke)

METAR text: VOVZ 200730Z 21008 4800 HZ FU FEW018 33/24 Q1010 NOSIG
Conditions at: VOVZ (VIZAGAPATAM , IN) observed 0730 UTC 20 March 2019
Temperature: 33.0°C (91°F)
Dewpoint: 24.0°C (75°F) [RH = 59%]
Pressure (altimeter): 29.82 inches Hg (1010.0 mb)
Winds: from the SSW (210 degrees) at 9 MPH (8 knots; 4.1 m/s)
Visibility: 2.98 miles (4.80 km)
Ceiling: at least 12,000 feet AGL
Clouds: few clouds at 1800 feet AGL
Weather: HZ FU  (haze, smoke)

METAR text: VOVZ 200700Z 19008KT 4800 HZ FU FEW018 34/23 Q1011 NOSIG
Conditions at: VOVZ (VIZAGAPATAM , IN) observed 0700 UTC 20 March 2019
Temperature: 34.0°C (93°F)
Dewpoint: 23.0°C (73°F) [RH = 53%]
Pressure (altimeter): 29.85 inches Hg (1011.0 mb)
Winds: from the S (190 degrees) at 9 MPH (8 knots; 4.1 m/s)
Visibility: 2.98 miles (4.80 km)
Ceiling: at least 12,000 feet AGL
Clouds: few clouds at 1800 feet AGL
Weather: HZ FU  (haze, smoke)

METAR text: VOVZ 200630Z 18008KT 4800 HZ FU FEW018 34/23 Q1011 NOSIG
Conditions at: VOVZ (VIZAGAPATAM , IN) observed 0630 UTC 20 March 2019
Temperature: 34.0°C (93°F)
Dewpoint: 23.0°C (73°F) [RH = 53%]
Pressure (altimeter): 29.85 inches Hg (1011.0 mb)
Winds: from the S (180 degrees) at 9 MPH (8 knots; 4.1 m/s)
Visibility: 2.98 miles (4.80 km)
Ceiling: at least 12,000 feet AGL
Clouds: few clouds at 1800 feet AGL
Weather: HZ FU  (haze, smoke)

METAR text: VOVZ 200600Z 19010KT 4800 HZ FU SCT016 34/23 Q1012 NOSIG
Conditions at: VOVZ (VIZAGAPATAM , IN) observed 0600 UTC 20 March 2019
Temperature: 34.0°C (93°F)
Dewpoint: 23.0°C (73°F) [RH = 53%]
Pressure (altimeter): 29.88 inches Hg (1012.0 mb)
Winds: from the S (190 degrees) at 12 MPH (10 knots; 5.1 m/s)
Visibility: 2.98 miles (4.80 km)
Ceiling: at least 12,000 feet AGL
Clouds: scattered clouds at 1600 feet AGL
Weather: HZ FU  (haze, smoke)

METAR text: VOVZ 200530Z 18006KT 4800 HZ FU SCT016 32/23 Q1012 NOSIG
Conditions at: VOVZ (VIZAGAPATAM , IN) observed 0530 UTC 20 March 2019
Temperature: 32.0°C (90°F)
Dewpoint: 23.0°C (73°F) [RH = 59%]
Pressure (altimeter): 29.88 inches Hg (1012.0 mb)
Winds: from the S (180 degrees) at 7 MPH (6 knots; 3.1 m/s)
Visibility: 2.98 miles (4.80 km)
Ceiling: at least 12,000 feet AGL
Clouds: scattered clouds at 1600 feet AGL
Weather: HZ FU  (haze, smoke)

METAR text: VOVZ 200500Z 26007KT 4800 HZ FU SCT016 31/23 Q1012 NOSIG
Conditions at: VOVZ (VIZAGAPATAM , IN) observed 0500 UTC 20 March 2019
Temperature: 31.0°C (88°F)
Dewpoint: 23.0°C (73°F) [RH = 63%]
Pressure (altimeter): 29.88 inches Hg (1012.0 mb)
Winds: from the W (260 degrees) at 8 MPH (7 knots; 3.6 m/s)
Visibility: 2.98 miles (4.80 km)
Ceiling: at least 12,000 feet AGL
Clouds: scattered clouds at 1600 feet AGL
Weather: HZ FU  (haze, smoke)

METAR text: VOVZ 200430Z 22007KT 4800 HZ FU SCT016 30/22 Q1012 NOSIG
Conditions at: VOVZ (VIZAGAPATAM , IN) observed 0430 UTC 20 March 2019
Temperature: 30.0°C (86°F)
Dewpoint: 22.0°C (72°F) [RH = 62%]
Pressure (altimeter): 29.88 inches Hg (1012.0 mb)
Winds: from the SW (220 degrees) at 8 MPH (7 knots; 3.6 m/s)
Visibility: 2.98 miles (4.80 km)
Ceiling: at least 12,000 feet AGL
Clouds: scattered clouds at 1600 feet AGL
Weather: HZ FU  (haze, smoke)

METAR text: VOVZ 200400Z 21008KT 4700 HZ FU SCT016 30/23 Q1012 NOSIG
Conditions at: VOVZ (VIZAGAPATAM , IN) observed 0400 UTC 20 March 2019
Temperature: 30.0°C (86°F)
Dewpoint: 23.0°C (73°F) [RH = 66%]
Pressure (altimeter): 29.88 inches Hg (1012.0 mb)
Winds: from the SSW (210 degrees) at 9 MPH (8 knots; 4.1 m/s)
Visibility: 2.92 miles (4.70 km)
Ceiling: at least 12,000 feet AGL
Clouds: scattered clouds at 1600 feet AGL
Weather: HZ FU  (haze, smoke)

METAR text: VOVZ 200330Z 28008KT 4700 HZ FU SCT016 29/23 Q1012 NOSIG
Conditions at: VOVZ (VIZAGAPATAM , IN) observed 0330 UTC 20 March 2019
Temperature: 29.0°C (84°F)
Dewpoint: 23.0°C (73°F) [RH = 70%]
Pressure (altimeter): 29.88 inches Hg (1012.0 mb)
Winds: from the W (280 degrees) at 9 MPH (8 knots; 4.1 m/s)
Visibility: 2.92 miles (4.70 km)
Ceiling: at least 12,000 feet AGL
Clouds: scattered clouds at 1600 feet AGL
Weather: HZ FU  (haze, smoke)

METAR text: VOVZ 200300Z 27006KT 4700 HZ FU FEW018 29/23 Q1012 NOSIG
Conditions at: VOVZ (VIZAGAPATAM , IN) observed 0300 UTC 20 March 2019
Temperature: 29.0°C (84°F)
Dewpoint: 23.0°C (73°F) [RH = 70%]
Pressure (altimeter): 29.88 inches Hg (1012.0 mb)
Winds: from the W (270 degrees) at 7 MPH (6 knots; 3.1 m/s)
Visibility: 2.92 miles (4.70 km)
Ceiling: at least 12,000 feet AGL
Clouds: few clouds at 1800 feet AGL
Weather: HZ FU  (haze, smoke)

METAR text: VOVZ 200230Z 27004KT 4700 BR FU FEW018 28/23 Q1012 NOSIG
Conditions at: VOVZ (VIZAGAPATAM , IN) observed 0230 UTC 20 March 2019
Temperature: 28.0°C (82°F)
Dewpoint: 23.0°C (73°F) [RH = 74%]
Pressure (altimeter): 29.88 inches Hg (1012.0 mb)
Winds: from the W (270 degrees) at 5 MPH (4 knots; 2.1 m/s)
Visibility: 2.92 miles (4.70 km)
Ceiling: at least 12,000 feet AGL
Clouds: few clouds at 1800 feet AGL
Weather: BR FU  (mist, smoke)

METAR text: VOVZ 200200Z VRB02KT 4700 BR FU FEW018 27/23 Q1011 NOSIG
Conditions at: VOVZ (VIZAGAPATAM , IN) observed 0200 UTC 20 March 2019
Temperature: 27.0°C (81°F)
Dewpoint: 23.0°C (73°F) [RH = 79%]
Pressure (altimeter): 29.85 inches Hg (1011.0 mb)
Winds: variable direction winds at 2 MPH (2 knots; 1.0 m/s)
Visibility: 2.92 miles (4.70 km)
Ceiling: at least 12,000 feet AGL
Clouds: few clouds at 1800 feet AGL
Weather: BR FU  (mist, smoke)

METAR text: VOVZ 200130Z VRB02KT 3500 BR/FU FEW018 SCT090 25/22 Q1010 NOSIG
Conditions at: VOVZ (VIZAGAPATAM , IN) observed 0130 UTC 20 March 2019
Temperature: 25.0°C (77°F)
Dewpoint: 22.0°C (72°F) [RH = 83%]
Pressure (altimeter): 29.82 inches Hg (1010.0 mb)
Winds: variable direction winds at 2 MPH (2 knots; 1.0 m/s)
Visibility: 2.17 miles (3.49 km)
Ceiling: at least 12,000 feet AGL
Clouds: few clouds at 1800 feet AGL
scattered clouds at 9000 feet AGL
Weather: FU BR  (smoke, mist)

METAR text: VOVZ 200100Z VRB02KT 3500 BR/FU FEW018 SCT090 25/22 Q1010 NOSIG
Conditions at: VOVZ (VIZAGAPATAM , IN) observed 0100 UTC 20 March 2019
Temperature: 25.0°C (77°F)
Dewpoint: 22.0°C (72°F) [RH = 83%]
Pressure (altimeter): 29.82 inches Hg (1010.0 mb)
Winds: variable direction winds at 2 MPH (2 knots; 1.0 m/s)
Visibility: 2.17 miles (3.49 km)
Ceiling: at least 12,000 feet AGL
Clouds: few clouds at 1800 feet AGL
scattered clouds at 9000 feet AGL
Weather: FU BR  (smoke, mist)

METAR text: VOVZ 200030Z VRB02KT 3500 BR/FU FEW018 25/23 Q1009 TEMPO 2500 BR/FU
Conditions at: VOVZ (VIZAGAPATAM , IN) observed 0030 UTC 20 March 2019
Temperature: 25.0°C (77°F)
Dewpoint: 23.0°C (73°F) [RH = 89%]
Pressure (altimeter): 29.79 inches Hg (1009.0 mb)
Winds: variable direction winds at 2 MPH (2 knots; 1.0 m/s)
Visibility: 2.17 miles (3.49 km)
Ceiling: at least 12,000 feet AGL
Clouds: few clouds at 1800 feet AGL
Weather: FU BR  (smoke, mist)

METAR text: VOVZ 200000Z VRB02KT 3500 BR/FU FEW018 25/22 Q1009 TEMPO 2500 BR/FU
Conditions at: VOVZ (VIZAGAPATAM , IN) observed 0000 UTC 20 March 2019
Temperature: 25.0°C (77°F)
Dewpoint: 22.0°C (72°F) [RH = 83%]
Pressure (altimeter): 29.79 inches Hg (1009.0 mb)
Winds: variable direction winds at 2 MPH (2 knots; 1.0 m/s)
Visibility: 2.17 miles (3.49 km)
Ceiling: at least 12,000 feet AGL
Clouds: few clouds at 1800 feet AGL
Weather: FU BR  (smoke, mist)

METAR text: VOVZ 192330Z VRB02KT 4000 BR/FU FEW018 26/22 Q1009 TEMPO 2500 BR/FU
Conditions at: VOVZ (VIZAGAPATAM , IN) observed 2330 UTC 19 March 2019
Temperature: 26.0°C (79°F)
Dewpoint: 22.0°C (72°F) [RH = 79%]
Pressure (altimeter): 29.79 inches Hg (1009.0 mb)
Winds: variable direction winds at 2 MPH (2 knots; 1.0 m/s)
Visibility: 2.49 miles (4.01 km)
Ceiling: at least 12,000 feet AGL
Clouds: few clouds at 1800 feet AGL
Weather: FU BR  (smoke, mist)

METAR text: VOVZ 192300Z VRB02KT 4000 BR/FU FEW018 27/23 Q1008 TEMPO 2500 BR/FU
Conditions at: VOVZ (VIZAGAPATAM , IN) observed 2300 UTC 19 March 2019
Temperature: 27.0°C (81°F)
Dewpoint: 23.0°C (73°F) [RH = 79%]
Pressure (altimeter): 29.76 inches Hg (1008.0 mb)
Winds: variable direction winds at 2 MPH (2 knots; 1.0 m/s)
Visibility: 2.49 miles (4.01 km)
Ceiling: at least 12,000 feet AGL
Clouds: few clouds at 1800 feet AGL
Weather: FU BR  (smoke, mist)

METAR text: VOVZ 192200Z VRB02KT 4500 BR/FU FEW018 SCT090 27/23 Q1008 NOSIG
Conditions at: VOVZ (VIZAGAPATAM , IN) observed 2200 UTC 19 March 2019
Temperature: 27.0°C (81°F)
Dewpoint: 23.0°C (73°F) [RH = 79%]
Pressure (altimeter): 29.76 inches Hg (1008.0 mb)
Winds: variable direction winds at 2 MPH (2 knots; 1.0 m/s)
Visibility: 2.80 miles (4.51 km)
Ceiling: at least 12,000 feet AGL
Clouds: few clouds at 1800 feet AGL
scattered clouds at 9000 feet AGL
Weather: FU BR  (smoke, mist)

METAR text: VOVZ 192100Z 28004KT 5000 BR/FU FEW018 SCT090 27/22 Q1008 NOSIG
Conditions at: VOVZ (VIZAGAPATAM , IN) observed 2100 UTC 19 March 2019
Temperature: 27.0°C (81°F)
Dewpoint: 22.0°C (72°F) [RH = 74%]
Pressure (altimeter): 29.76 inches Hg (1008.0 mb)
Winds: from the W (280 degrees) at 5 MPH (4 knots; 2.1 m/s)
Visibility: 3 miles ( 5 km)
Ceiling: at least 12,000 feet AGL
Clouds: few clouds at 1800 feet AGL
scattered clouds at 9000 feet AGL
Weather: FU BR  (smoke, mist)

METAR text: VOVZ 192000Z 27004KT 5000 BR/FU FEW018 SCT090 27/22 Q1009 NOSIG
Conditions at: VOVZ (VIZAGAPATAM , IN) observed 2000 UTC 19 March 2019
Temperature: 27.0°C (81°F)
Dewpoint: 22.0°C (72°F) [RH = 74%]
Pressure (altimeter): 29.79 inches Hg (1009.0 mb)
Winds: from the W (270 degrees) at 5 MPH (4 knots; 2.1 m/s)
Visibility: 3 miles ( 5 km)
Ceiling: at least 12,000 feet AGL
Clouds: few clouds at 1800 feet AGL
scattered clouds at 9000 feet AGL
Weather: FU BR  (smoke, mist)

METAR text: VOVZ 191800Z 23005KT 6000 SCT018 SCT090 28/22 Q1011 NOSIG
Conditions at: VOVZ (VIZAGAPATAM , IN) observed 1800 UTC 19 March 2019
Temperature: 28.0°C (82°F)
Dewpoint: 22.0°C (72°F) [RH = 70%]
Pressure (altimeter): 29.85 inches Hg (1011.0 mb)
Winds: from the SW (230 degrees) at 6 MPH (5 knots; 2.6 m/s)
Visibility: 4 miles ( 6 km)
Ceiling: at least 12,000 feet AGL
Clouds: scattered clouds at 1800 feet AGL
scattered clouds at 9000 feet AGL
Weather: no significant weather observed at this time

METAR text: VOVZ 191730Z 22006KT 6000 SCT018 SCT090 28/22 Q1011 NOSIG
Conditions at: VOVZ (VIZAGAPATAM , IN) observed 1730 UTC 19 March 2019
Temperature: 28.0°C (82°F)
Dewpoint: 22.0°C (72°F) [RH = 70%]
Pressure (altimeter): 29.85 inches Hg (1011.0 mb)
Winds: from the SW (220 degrees) at 7 MPH (6 knots; 3.1 m/s)
Visibility: 4 miles ( 6 km)
Ceiling: at least 12,000 feet AGL
Clouds: scattered clouds at 1800 feet AGL
scattered clouds at 9000 feet AGL
Weather: no significant weather observed at this time

METAR text: VOVZ 191700Z 23006KT 6000 SCT018 SCT090 28/22 Q1011 NOSIG
Conditions at: VOVZ (VIZAGAPATAM , IN) observed 1700 UTC 19 March 2019
Temperature: 28.0°C (82°F)
Dewpoint: 22.0°C (72°F) [RH = 70%]
Pressure (altimeter): 29.85 inches Hg (1011.0 mb)
Winds: from the SW (230 degrees) at 7 MPH (6 knots; 3.1 m/s)
Visibility: 4 miles ( 6 km)
Ceiling: at least 12,000 feet AGL
Clouds: scattered clouds at 1800 feet AGL
scattered clouds at 9000 feet AGL
Weather: no significant weather observed at this time

METAR text: VOVZ 191630Z 24004KT 6000 SCT018 SCT090 28/22 Q1011 NOSIG
Conditions at: VOVZ (VIZAGAPATAM , IN) observed 1630 UTC 19 March 2019
Temperature: 28.0°C (82°F)
Dewpoint: 22.0°C (72°F) [RH = 70%]
Pressure (altimeter): 29.85 inches Hg (1011.0 mb)
Winds: from the WSW (240 degrees) at 5 MPH (4 knots; 2.1 m/s)
Visibility: 4 miles ( 6 km)
Ceiling: at least 12,000 feet AGL
Clouds: scattered clouds at 1800 feet AGL
scattered clouds at 9000 feet AGL
Weather: no significant weather observed at this time

METAR text: VOVZ 191600Z 22005KT 6000 FEW018 SCT090 28/22 Q1011 NOSIG
Conditions at: VOVZ (VIZAGAPATAM , IN) observed 1600 UTC 19 March 2019
Temperature: 28.0°C (82°F)
Dewpoint: 22.0°C (72°F) [RH = 70%]
Pressure (altimeter): 29.85 inches Hg (1011.0 mb)
Winds: from the SW (220 degrees) at 6 MPH (5 knots; 2.6 m/s)
Visibility: 4 miles ( 6 km)
Ceiling: at least 12,000 feet AGL
Clouds: few clouds at 1800 feet AGL
scattered clouds at 9000 feet AGL
Weather: no significant weather observed at this time

METAR text: VOVZ 191530Z 21005KT 6000 FEW018 28/22 Q1011 NOSIG
Conditions at: VOVZ (VIZAGAPATAM , IN) observed 1530 UTC 19 March 2019
Temperature: 28.0°C (82°F)
Dewpoint: 22.0°C (72°F) [RH = 70%]
Pressure (altimeter): 29.85 inches Hg (1011.0 mb)
Winds: from the SSW (210 degrees) at 6 MPH (5 knots; 2.6 m/s)
Visibility: 4 miles ( 6 km)
Ceiling: at least 12,000 feet AGL
Clouds: few clouds at 1800 feet AGL
Weather: no significant weather observed at this time

METAR text: VOVZ 191500Z 21007KT 6000 FEW018 28/22 Q1010 NOSIG
Conditions at: VOVZ (VIZAGAPATAM , IN) observed 1500 UTC 19 March 2019
Temperature: 28.0°C (82°F)
Dewpoint: 22.0°C (72°F) [RH = 70%]
Pressure (altimeter): 29.82 inches Hg (1010.0 mb)
Winds: from the SSW (210 degrees) at 8 MPH (7 knots; 3.6 m/s)
Visibility: 4 miles ( 6 km)
Ceiling: at least 12,000 feet AGL
Clouds: few clouds at 1800 feet AGL
Weather: no significant weather observed at this time

METAR text: VOVZ 191430Z 20007KT 6000 FEW018 28/22 Q1010 NOSIG
Conditions at: VOVZ (VIZAGAPATAM , IN) observed 1430 UTC 19 March 2019
Temperature: 28.0°C (82°F)
Dewpoint: 22.0°C (72°F) [RH = 70%]
Pressure (altimeter): 29.82 inches Hg (1010.0 mb)
Winds: from the SSW (200 degrees) at 8 MPH (7 knots; 3.6 m/s)
Visibility: 4 miles ( 6 km)
Ceiling: at least 12,000 feet AGL
Clouds: few clouds at 1800 feet AGL
Weather: no significant weather observed at this time

METAR text: VOVZ 191400Z 23006KT 6000 FEW018 28/22 Q1010 NOSIG
Conditions at: VOVZ (VIZAGAPATAM , IN) observed 1400 UTC 19 March 2019
Temperature: 28.0°C (82°F)
Dewpoint: 22.0°C (72°F) [RH = 70%]
Pressure (altimeter): 29.82 inches Hg (1010.0 mb)
Winds: from the SW (230 degrees) at 7 MPH (6 knots; 3.1 m/s)
Visibility: 4 miles ( 6 km)
Ceiling: at least 12,000 feet AGL
Clouds: few clouds at 1800 feet AGL
Weather: no significant weather observed at this time

METAR text: VOVZ 191330Z 21007KT 6000 FEW018 28/22 Q1009 NOSIG
Conditions at: VOVZ (VIZAGAPATAM , IN) observed 1330 UTC 19 March 2019
Temperature: 28.0°C (82°F)
Dewpoint: 22.0°C (72°F) [RH = 70%]
Pressure (altimeter): 29.79 inches Hg (1009.0 mb)
Winds: from the SSW (210 degrees) at 8 MPH (7 knots; 3.6 m/s)
Visibility: 4 miles ( 6 km)
Ceiling: at least 12,000 feet AGL
Clouds: few clouds at 1800 feet AGL
Weather: no significant weather observed at this time

METAR text: VOVZ 191300Z 20007KT 6000 FEW018 28/22 Q1009 NOSIG
Conditions at: VOVZ (VIZAGAPATAM , IN) observed 1300 UTC 19 March 2019
Temperature: 28.0°C (82°F)
Dewpoint: 22.0°C (72°F) [RH = 70%]
Pressure (altimeter): 29.79 inches Hg (1009.0 mb)
Winds: from the SSW (200 degrees) at 8 MPH (7 knots; 3.6 m/s)
Visibility: 4 miles ( 6 km)
Ceiling: at least 12,000 feet AGL
Clouds: few clouds at 1800 feet AGL
Weather: no significant weather observed at this time

METAR text: VOVZ 191230Z 21008KT 6000 FEW018 29/22 Q1009 NOSIG
Conditions at: VOVZ (VIZAGAPATAM , IN) observed 1230 UTC 19 March 2019
Temperature: 29.0°C (84°F)
Dewpoint: 22.0°C (72°F) [RH = 66%]
Pressure (altimeter): 29.79 inches Hg (1009.0 mb)
Winds: from the SSW (210 degrees) at 9 MPH (8 knots; 4.1 m/s)
Visibility: 4 miles ( 6 km)
Ceiling: at least 12,000 feet AGL
Clouds: few clouds at 1800 feet AGL
Weather: no significant weather observed at this time

METAR text: VOVZ 191200Z 21008KT 6000 NSC 29/22 Q1008 NOSIG
Conditions at: VOVZ (VIZAGAPATAM , IN) observed 1200 UTC 19 March 2019
Temperature: 29.0°C (84°F)
Dewpoint: 22.0°C (72°F) [RH = 66%]
Pressure (altimeter): 29.76 inches Hg (1008.0 mb)
Winds: from the SSW (210 degrees) at 9 MPH (8 knots; 4.1 m/s)
Visibility: 4 miles ( 6 km)
Ceiling: at least 12,000 feet AGL
Clouds: sky clear below 12,000 feet AGL
Weather: no significant weather observed at this time

METAR text: VOVZ 191130Z 20009KT 6000 NSC 30/21 Q1008 NOSIG
Conditions at: VOVZ (VIZAGAPATAM , IN) observed 1130 UTC 19 March 2019
Temperature: 30.0°C (86°F)
Dewpoint: 21.0°C (70°F) [RH = 59%]
Pressure (altimeter): 29.76 inches Hg (1008.0 mb)
Winds: from the SSW (200 degrees) at 10 MPH (9 knots; 4.6 m/s)
Visibility: 4 miles ( 6 km)
Ceiling: at least 12,000 feet AGL
Clouds: sky clear below 12,000 feet AGL
Weather: no significant weather observed at this time

METAR text: VOVZ 191100Z 20009KT 6000 NSC 30/22 Q1008 NOSIG
Conditions at: VOVZ (VIZAGAPATAM , IN) observed 1100 UTC 19 March 2019
Temperature: 30.0°C (86°F)
Dewpoint: 22.0°C (72°F) [RH = 62%]
Pressure (altimeter): 29.76 inches Hg (1008.0 mb)
Winds: from the SSW (200 degrees) at 10 MPH (9 knots; 4.6 m/s)
Visibility: 4 miles ( 6 km)
Ceiling: at least 12,000 feet AGL
Clouds: sky clear below 12,000 feet AGL
Weather: no significant weather observed at this time

METAR text: VOVZ 191030Z 18008KT 6000 NSC 30/21 Q1008 NOSIG
Conditions at: VOVZ (VIZAGAPATAM , IN) observed 1030 UTC 19 March 2019
Temperature: 30.0°C (86°F)
Dewpoint: 21.0°C (70°F) [RH = 59%]
Pressure (altimeter): 29.76 inches Hg (1008.0 mb)
Winds: from the S (180 degrees) at 9 MPH (8 knots; 4.1 m/s)
Visibility: 4 miles ( 6 km)
Ceiling: at least 12,000 feet AGL
Clouds: sky clear below 12,000 feet AGL
Weather: no significant weather observed at this time

METAR text: VOVZ 191000Z 18010KT 6000 NSC 31/21 Q1008 NOSIG
Conditions at: VOVZ (VIZAGAPATAM , IN) observed 1000 UTC 19 March 2019
Temperature: 31.0°C (88°F)
Dewpoint: 21.0°C (70°F) [RH = 55%]
Pressure (altimeter): 29.76 inches Hg (1008.0 mb)
Winds: from the S (180 degrees) at 12 MPH (10 knots; 5.1 m/s)
Visibility: 4 miles ( 6 km)
Ceiling: at least 12,000 feet AGL
Clouds: sky clear below 12,000 feet AGL
Weather: no significant weather observed at this time

METAR text: VOVZ 190930Z 20010KT 6000 NSC 31/21 Q1008 NOSIG
Conditions at: VOVZ (VIZAGAPATAM , IN) observed 0930 UTC 19 March 2019
Temperature: 31.0°C (88°F)
Dewpoint: 21.0°C (70°F) [RH = 55%]
Pressure (altimeter): 29.76 inches Hg (1008.0 mb)
Winds: from the SSW (200 degrees) at 12 MPH (10 knots; 5.1 m/s)
Visibility: 4 miles ( 6 km)
Ceiling: at least 12,000 feet AGL
Clouds: sky clear below 12,000 feet AGL
Weather: no significant weather observed at this time

METAR text: VOVZ 190900Z 21010KT 6000 NSC 31/21 Q1008 NOSIG
Conditions at: VOVZ (VIZAGAPATAM , IN) observed 0900 UTC 19 March 2019
Temperature: 31.0°C (88°F)
Dewpoint: 21.0°C (70°F) [RH = 55%]
Pressure (altimeter): 29.76 inches Hg (1008.0 mb)
Winds: from the SSW (210 degrees) at 12 MPH (10 knots; 5.1 m/s)
Visibility: 4 miles ( 6 km)
Ceiling: at least 12,000 feet AGL
Clouds: sky clear below 12,000 feet AGL
Weather: no significant weather observed at this time

METAR text: VOVZ 190830Z 20009KT 6000 NSC 31/21 Q1009 NOSIG
Conditions at: VOVZ (VIZAGAPATAM , IN) observed 0830 UTC 19 March 2019
Temperature: 31.0°C (88°F)
Dewpoint: 21.0°C (70°F) [RH = 55%]
Pressure (altimeter): 29.79 inches Hg (1009.0 mb)
Winds: from the SSW (200 degrees) at 10 MPH (9 knots; 4.6 m/s)
Visibility: 4 miles ( 6 km)
Ceiling: at least 12,000 feet AGL
Clouds: sky clear below 12,000 feet AGL
Weather: no significant weather observed at this time

METAR text: VOVZ 190800Z 20009KT 6000 NSC 32/21 Q1009 NOSIG
Conditions at: VOVZ (VIZAGAPATAM , IN) observed 0800 UTC 19 March 2019
Temperature: 32.0°C (90°F)
Dewpoint: 21.0°C (70°F) [RH = 52%]
Pressure (altimeter): 29.79 inches Hg (1009.0 mb)
Winds: from the SSW (200 degrees) at 10 MPH (9 knots; 4.6 m/s)
Visibility: 4 miles ( 6 km)
Ceiling: at least 12,000 feet AGL
Clouds: sky clear below 12,000 feet AGL
Weather: no significant weather observed at this time

METAR text: VOVZ 190730Z 18008KT 6000 FEW018 32/20 Q1010 NOSIG
Conditions at: VOVZ (VIZAGAPATAM , IN) observed 0730 UTC 19 March 2019
Temperature: 32.0°C (90°F)
Dewpoint: 20.0°C (68°F) [RH = 49%]
Pressure (altimeter): 29.82 inches Hg (1010.0 mb)
Winds: from the S (180 degrees) at 9 MPH (8 knots; 4.1 m/s)
Visibility: 4 miles ( 6 km)
Ceiling: at least 12,000 feet AGL
Clouds: few clouds at 1800 feet AGL
Weather: no significant weather observed at this time

METAR text: VOVZ 190700Z 20008KT 6000 FEW018 32/20 Q1010 NOSIG
Conditions at: VOVZ (VIZAGAPATAM , IN) observed 0700 UTC 19 March 2019
Temperature: 32.0°C (90°F)
Dewpoint: 20.0°C (68°F) [RH = 49%]
Pressure (altimeter): 29.82 inches Hg (1010.0 mb)
Winds: from the SSW (200 degrees) at 9 MPH (8 knots; 4.1 m/s)
Visibility: 4 miles ( 6 km)
Ceiling: at least 12,000 feet AGL
Clouds: few clouds at 1800 feet AGL
Weather: no significant weather observed at this time

METAR text: VOVZ 190630Z 19009KT 5000 HZ/FU FEW018 32/20 Q1011 NOSIG
Conditions at: VOVZ (VIZAGAPATAM , IN) observed 0630 UTC 19 March 2019
Temperature: 32.0°C (90°F)
Dewpoint: 20.0°C (68°F) [RH = 49%]
Pressure (altimeter): 29.85 inches Hg (1011.0 mb)
Winds: from the S (190 degrees) at 10 MPH (9 knots; 4.6 m/s)
Visibility: 3 miles ( 5 km)
Ceiling: at least 12,000 feet AGL
Clouds: few clouds at 1800 feet AGL
Weather: FU HZ  (smoke, haze)

METAR text: VOVZ 190600Z 19008KT 5000 HZ/FU FEW018 31/20 Q1011 NOSIG
Conditions at: VOVZ (VIZAGAPATAM , IN) observed 0600 UTC 19 March 2019
Temperature: 31.0°C (88°F)
Dewpoint: 20.0°C (68°F) [RH = 52%]
Pressure (altimeter): 29.85 inches Hg (1011.0 mb)
Winds: from the S (190 degrees) at 9 MPH (8 knots; 4.1 m/s)
Visibility: 3 miles ( 5 km)
Ceiling: at least 12,000 feet AGL
Clouds: few clouds at 1800 feet AGL
Weather: FU HZ  (smoke, haze)

METAR text: VOVZ 190530Z 21005KT 5000 HZ/FU FEW018 31/20 Q1012 NOSIG
Conditions at: VOVZ (VIZAGAPATAM , IN) observed 0530 UTC 19 March 2019
Temperature: 31.0°C (88°F)
Dewpoint: 20.0°C (68°F) [RH = 52%]
Pressure (altimeter): 29.88 inches Hg (1012.0 mb)
Winds: from the SSW (210 degrees) at 6 MPH (5 knots; 2.6 m/s)
Visibility: 3 miles ( 5 km)
Ceiling: at least 12,000 feet AGL
Clouds: few clouds at 1800 feet AGL
Weather: FU HZ  (smoke, haze)

METAR text: VOVZ 190500Z 22005KT 5000 HZ/FU FEW018 31/20 Q1012 NOSIG
Conditions at: VOVZ (VIZAGAPATAM , IN) observed 0500 UTC 19 March 2019
Temperature: 31.0°C (88°F)
Dewpoint: 20.0°C (68°F) [RH = 52%]
Pressure (altimeter): 29.88 inches Hg (1012.0 mb)
Winds: from the SW (220 degrees) at 6 MPH (5 knots; 2.6 m/s)
Visibility: 3 miles ( 5 km)
Ceiling: at least 12,000 feet AGL
Clouds: few clouds at 1800 feet AGL
Weather: FU HZ  (smoke, haze)

METAR text: VOVZ 190430Z 25006KT 5000 HZ/FU FEW018 30/21 Q1012 NOSIG
Conditions at: VOVZ (VIZAGAPATAM , IN) observed 0430 UTC 19 March 2019
Temperature: 30.0°C (86°F)
Dewpoint: 21.0°C (70°F) [RH = 59%]
Pressure (altimeter): 29.88 inches Hg (1012.0 mb)
Winds: from the WSW (250 degrees) at 7 MPH (6 knots; 3.1 m/s)
Visibility: 3 miles ( 5 km)
Ceiling: at least 12,000 feet AGL
Clouds: few clouds at 1800 feet AGL
Weather: FU HZ  (smoke, haze)

METAR text: VOVZ 190400Z 22004KT 5000 HZ/FU FEW018 29/22 Q1013 NOSIG
Conditions at: VOVZ (VIZAGAPATAM , IN) observed 0400 UTC 19 March 2019
Temperature: 29.0°C (84°F)
Dewpoint: 22.0°C (72°F) [RH = 66%]
Pressure (altimeter): 29.91 inches Hg (1013.0 mb)
Winds: from the SW (220 degrees) at 5 MPH (4 knots; 2.1 m/s)
Visibility: 3 miles ( 5 km)
Ceiling: at least 12,000 feet AGL
Clouds: few clouds at 1800 feet AGL
Weather: FU HZ  (smoke, haze)

METAR text: VOVZ 190330Z 24005KT 4500 HZ/FU NSC 28/22 Q1013 BECMG 5000 HZ/FU
Conditions at: VOVZ (VIZAGAPATAM , IN) observed 0330 UTC 19 March 2019
Temperature: 28.0°C (82°F)
Dewpoint: 22.0°C (72°F) [RH = 70%]
Pressure (altimeter): 29.91 inches Hg (1013.0 mb)
Winds: from the WSW (240 degrees) at 6 MPH (5 knots; 2.6 m/s)
Visibility: 2.80 miles (4.51 km)
Ceiling: at least 12,000 feet AGL
Clouds: sky clear below 12,000 feet AGL
Weather: FU HZ  (smoke, haze)

Forecast for: VOVZ (VIZAGAPATAM , IN)
Text: TAF VOVZ 201400Z 2015/2024 23010KT 5000 BR FEW018
Forecast period: 1500 to 1900 UTC 20 March 2019
Forecast type: FROM: standard forecast or significant change
Winds: from the SW (230 degrees) at 12 MPH (10 knots; 5.1 m/s)
Visibility: 3 miles (5 km)
Ceiling: at least 12,000 feet AGL
Clouds: few clouds at 1800 feet AGL
Weather: BR  (mist)
Text: BECMG 2019/2021 VRB02KT
Forecast period: 1900 UTC 20 March 2019 to 0000 UTC 21 March 2019
Forecast type: BECOMING: Conditions expected to become as follows by 2100 UTC 20 March 2019
Winds: variable direction winds at 2 MPH (2 knots; 1.0 m/s)
Visibility: 3 miles (5 km)
Ceiling: at least 12,000 feet AGL
Clouds: few clouds at 1800 feet AGL
Weather: BR  (mist)